Strona główna
METAR-TAF:

METAR-TAF

Lotnisko :

Port lotniczy Valdivia-Pichoy

Valdivia, Chile

Szerokość geograficzna: 39-37S, Długość geograficzna: 073-05W, wysokość: 19 m

Aktualna obserwacja pogody

Raport powstał 16 minut temu, godzina 21:00 UTC
Wiatr 7 kt od południowo-południowy zachód, zmienny między południowo-południowy wschód i zachód
Temperatura 25°C
Wilgotność 47%
Ciśnienie 1017 hPa
Widzialność 10 km lub więcej

METAR: SCVD 172100Z AUTO 20007KT 160V260 9999 NCD 25/13 Q1017

czas: 18:16 (21:16 UTC)


TAF: brakujący

Obserwacja i prognoza pogody dla ponad 4000 lotnisk (raport METAR i TAF).

Dostępne stacje oznaczono żółtymi i czerwonymi punktami na mapie.

Najedź kursorem aby zobaczyć nazwę stacji.

Kliknij aby zobaczyć obserwacje i prognozy pogody.

Aby zmienić mapę: kliknij na zielony przycisk z czarnym krzyżykiem, aby powiększyć; na zielony przycisk z myślnikiem, aby pomniejszyć; na zielone strzałki, aby przejść do map sąsiednich.


METAR-TAF: